Weather at Western Isles Hospital Helipad

Public forecast

Using degrees Celsius for public forecast. Weather courtesy of forecast.io.

Closest aviation weather report (METAR) to Western Isles Hospital Helipad

Closest report is Stornoway Airport, 1.6 nm (3.0 km) ESE.

2024/05/30 02:50 (retrieved 31 minutes ago)

EGPO 300250Z AUTO 36010KT 9999 FEW009/// BKN031/// BKN040/// 11/10 Q1011

Closest aviation forecast (TAF) to Western Isles Hospital Helipad

Forecast is more than 6 hours old.

Closest forecast is RAF Waddington, 362.2 nm (670.9 km) SE.

2024/05/29 18:18 (retrieved 9 hours ago)

TAF TAF EGXW 291703Z 2918/3012 CNL